PWSweather.com
Personal Weather Stations
Station Observations

ChardChardGB

Lat: 50.877408, Lon: -2.94964741

Elevation: 341

Station Type: WS3083

http://www.merriott-astro.co.uk/weather/index.htm

Latest ConditionsUpdated 7:40:09 AM GMT Thursday, Dec 12, 2019
Currently Today's Max Today's Min Today's Average
Temperature 47.5°F8.6°C 47.5°F8.6°C 35.1°F1.7°C 39.7°F4.3°C
Dew Point 44.7°F7.1°C 44.7°F7.1°C 30.9°F-0.6°C 35.9°F2.2°C
Winds 7.7 mph S12.4 kmh S 9.6 mph -15.4 kmh - - 4.0 mph 6.4 kmh
Wind Gusts 12.1 mph19.5 kmh 14.5 mph23.3 kmh - -
Humidity 90% 93% 80% 86%
Pressure 29.39 in995.3 mb 29.77 in1008.1 mb 29.39 in995.3 mb -
Precipitation - 0.33 in8.4 mm - -
Hour Temp Dew Point Humidity Winds Wind Gusts Pressure Precip Precip Rate Daily Precip Total
07:40 AM 47.5°F8.6°C 44.7°F7.1°C 90% 7.7 mph S12.4 kmh S 12.1 mph19.5 kmh 29.39 in995.3 mb 0.11 in2.8 mm 0.00 in0.0 mm 0.33 in8.4 mm
07:30 AM 47.3°F8.5°C 44.5°F6.9°C 90% 8.1 mph SSW13.0 kmh SSW 11.4 mph18.3 kmh 29.39 in995.3 mb 0.12 in3.0 mm 0.00 in0.0 mm 0.32 in8.1 mm
07:20 AM 47.1°F8.4°C 44.3°F6.8°C 90% 8.1 mph SW13.0 kmh SW 12.1 mph19.5 kmh 29.42 in996.3 mb 0.14 in3.6 mm 0.00 in0.0 mm 0.30 in7.6 mm
07:10 AM 46.9°F8.3°C 44.2°F6.8°C 90% 8.7 mph SW14.0 kmh SW 11.4 mph18.3 kmh 29.42 in996.3 mb 0.18 in4.6 mm 0.06 in1.5 mm 0.30 in7.6 mm
07:00 AM 46.6°F8.1°C 43.8°F6.6°C 90% 9.0 mph S14.5 kmh S 12.1 mph19.5 kmh 29.43 in996.6 mb 0.17 in4.3 mm 0.04 in1.0 mm 0.27 in6.9 mm
06:50 AM 46.0°F7.8°C 43.3°F6.3°C 90% 8.6 mph S13.8 kmh S 11.4 mph18.3 kmh 29.44 in997.0 mb 0.14 in3.6 mm 0.06 in1.5 mm 0.25 in6.4 mm
06:40 AM 45.9°F7.7°C 43.1°F6.2°C 90% 9.6 mph SSW15.4 kmh SSW 14.5 mph23.3 kmh 29.46 in997.6 mb 0.13 in3.3 mm 0.06 in1.5 mm 0.22 in5.6 mm
06:30 AM 45.5°F7.5°C 42.7°F5.9°C 90% 7.4 mph S11.9 kmh S 9.2 mph14.8 kmh 29.46 in997.6 mb 0.12 in3.0 mm 0.30 in7.6 mm 0.20 in5.1 mm
06:20 AM 45.3°F7.4°C 43.4°F6.3°C 93% 8.0 mph S12.9 kmh S 9.8 mph15.8 kmh 29.48 in998.3 mb 0.07 in1.8 mm 0.12 in3.0 mm 0.15 in3.8 mm
06:10 AM 45.1°F7.3°C 43.2°F6.2°C 93% 9.3 mph SW15.0 kmh SW 13.6 mph21.9 kmh 29.49 in998.6 mb 0.05 in1.3 mm 0.00 in0.0 mm 0.12 in3.0 mm
06:00 AM 44.6°F7.0°C 42.7°F5.9°C 93% 7.8 mph SSW12.6 kmh SSW 13.0 mph20.9 kmh 29.50 in999.0 mb 0.05 in1.3 mm 0.00 in0.0 mm 0.11 in2.8 mm
05:50 AM 43.9°F6.6°C 41.7°F5.4°C 92% 5.6 mph SW9.0 kmh SW 6.9 mph11.1 kmh 29.50 in999.0 mb 0.05 in1.3 mm 0.00 in0.0 mm 0.11 in2.8 mm
05:40 AM 43.2°F6.2°C 40.7°F4.8°C 91% 5.2 mph SSW8.4 kmh SSW 9.2 mph14.8 kmh 29.52 in999.7 mb 0.06 in1.5 mm 0.06 in1.5 mm 0.09 in2.3 mm
05:30 AM 41.9°F5.5°C 39.2°F4.0°C 90% 4.0 mph S6.4 kmh S 6.9 mph11.1 kmh 29.52 in999.7 mb 0.05 in1.3 mm 0.00 in0.0 mm 0.08 in2.0 mm
05:20 AM 40.6°F4.8°C 37.7°F3.2°C 89% 2.3 mph SE3.7 kmh SE 3.8 mph6.1 kmh 29.54 in1000.3 mb 0.06 in1.5 mm 0.06 in1.5 mm 0.08 in2.0 mm
05:10 AM 40.1°F4.5°C 36.8°F2.7°C 88% 1.5 mph SSE2.4 kmh SSE 3.1 mph5.0 kmh 29.55 in1000.7 mb 0.05 in1.3 mm 0.00 in0.0 mm 0.07 in1.8 mm
05:00 AM 39.4°F4.1°C 35.8°F2.1°C 87% 1.3 mph S2.1 kmh S 3.1 mph5.0 kmh 29.56 in1001.0 mb 0.05 in1.3 mm 0.00 in0.0 mm 0.06 in1.5 mm
04:50 AM 38.7°F3.7°C 34.8°F1.6°C 86% 1.4 mph S2.3 kmh S 3.1 mph5.0 kmh 29.57 in1001.4 mb 0.05 in1.3 mm 0.18 in4.6 mm 0.06 in1.5 mm
04:40 AM 38.5°F3.6°C 34.4°F1.3°C 85% 2.1 mph SSW3.4 kmh SSW 3.8 mph6.1 kmh 29.58 in1001.7 mb 0.02 in0.5 mm 0.00 in0.0 mm 0.04 in1.0 mm
04:30 AM 38.3°F3.5°C 33.9°F1.1°C 84% 0.8 mph S1.3 kmh S 1.6 mph2.6 kmh 29.59 in1002.0 mb 0.04 in1.0 mm 0.12 in3.0 mm 0.04 in1.0 mm
04:20 AM 38.3°F3.5°C 33.9°F1.1°C 84% 0.8 mph S1.3 kmh S 3.1 mph5.0 kmh 29.60 in1002.4 mb 0.02 in0.5 mm 0.00 in0.0 mm 0.02 in0.5 mm
04:10 AM 38.1°F3.4°C 33.7°F0.9°C 84% 1.5 mph S2.4 kmh S 2.2 mph3.5 kmh 29.62 in1003.0 mb 0.02 in0.5 mm 0.06 in1.5 mm 0.02 in0.5 mm
04:00 AM 38.1°F3.4°C 33.4°F0.8°C 83% 1.8 mph SE2.9 kmh SE 3.1 mph5.0 kmh 29.62 in1003.0 mb 0.01 in0.3 mm 0.00 in0.0 mm 0.01 in0.3 mm
03:50 AM 37.9°F3.3°C 33.2°F0.7°C 83% 1.6 mph ESE2.6 kmh ESE 3.1 mph5.0 kmh 29.63 in1003.4 mb 0.01 in0.3 mm 0.00 in0.0 mm 0.01 in0.3 mm
03:40 AM 37.8°F3.2°C 33.1°F0.6°C 83% 0.6 mph E1.0 kmh E 1.6 mph2.6 kmh 29.65 in1004.1 mb 0.01 in0.3 mm 0.06 in1.5 mm 0.01 in0.3 mm
03:30 AM 37.6°F3.1°C 32.9°F0.5°C 83% 2.1 mph S3.4 kmh S 3.8 mph6.1 kmh 29.66 in1004.4 mb 0.00 in0.0 mm 0.00 in0.0 mm 0.00 in0.0 mm
03:20 AM 37.4°F3.0°C 32.7°F0.4°C 83% 3.2 mph S5.1 kmh S 4.5 mph7.2 kmh 29.66 in1004.4 mb 0.00 in0.0 mm 0.00 in0.0 mm 0.00 in0.0 mm
03:10 AM 37.2°F2.9°C 32.2°F0.1°C 82% 2.0 mph SSW3.2 kmh SSW 2.2 mph3.5 kmh 29.66 in1004.4 mb 0.00 in0.0 mm 0.00 in0.0 mm 0.00 in0.0 mm
03:00 AM 37.2°F2.9°C 32.2°F0.1°C 82% 2.4 mph S3.9 kmh S 3.8 mph6.1 kmh 29.68 in1005.1 mb 0.00 in0.0 mm 0.00 in0.0 mm 0.00 in0.0 mm
02:50 AM 37.2°F2.9°C 31.9°F-0.1°C 81% 2.3 mph SSE3.7 kmh SSE 3.1 mph5.0 kmh 29.68 in1005.1 mb 0.00 in0.0 mm 0.00 in0.0 mm 0.00 in0.0 mm
02:40 AM 37.4°F3.0°C 31.8°F-0.1°C 80% 3.1 mph S5.0 kmh S 4.5 mph7.2 kmh 29.69 in1005.4 mb 0.00 in0.0 mm 0.00 in0.0 mm 0.00 in0.0 mm
02:30 AM 38.8°F3.8°C 33.2°F0.7°C 80% 3.1 mph SSE5.0 kmh SSE 3.8 mph6.1 kmh 29.69 in1005.4 mb 0.00 in0.0 mm 0.00 in0.0 mm 0.00 in0.0 mm
02:20 AM 39.0°F3.9°C 33.7°F0.9°C 81% 4.7 mph SSW7.6 kmh SSW 6.9 mph11.1 kmh 29.70 in1005.8 mb 0.00 in0.0 mm 0.00 in0.0 mm 0.00 in0.0 mm
02:10 AM 38.7°F3.7°C 34.3°F1.3°C 84% 4.5 mph SSW7.2 kmh SSW 6.0 mph9.7 kmh 29.70 in1005.8 mb 0.00 in0.0 mm 0.00 in0.0 mm 0.00 in0.0 mm
02:00 AM 37.8°F3.2°C 33.7°F0.9°C 85% 3.5 mph S5.6 kmh S 5.4 mph8.7 kmh 29.71 in1006.1 mb 0.00 in0.0 mm 0.00 in0.0 mm 0.00 in0.0 mm
01:50 AM 36.1°F2.3°C 32.1°F0.1°C 85% 3.3 mph S5.3 kmh S 4.5 mph7.2 kmh 29.72 in1006.4 mb 0.00 in0.0 mm 0.00 in0.0 mm 0.00 in0.0 mm
01:40 AM 35.2°F1.8°C 30.9°F-0.6°C 84% 3.1 mph S5.0 kmh S 3.8 mph6.1 kmh 29.72 in1006.4 mb 0.00 in0.0 mm 0.00 in0.0 mm 0.00 in0.0 mm
01:30 AM 35.6°F2.0°C 31.5°F-0.3°C 85% 4.1 mph S6.6 kmh S 6.9 mph11.1 kmh 29.73 in1006.8 mb 0.00 in0.0 mm 0.00 in0.0 mm 0.00 in0.0 mm
01:20 AM 35.4°F1.9°C 31.4°F-0.3°C 85% 4.7 mph S7.6 kmh S 6.0 mph9.7 kmh 29.74 in1007.1 mb 0.00 in0.0 mm 0.00 in0.0 mm 0.00 in0.0 mm
01:10 AM 35.1°F1.7°C 31.0°F-0.6°C 85% 3.6 mph S5.8 kmh S 4.5 mph7.2 kmh 29.74 in1007.1 mb 0.00 in0.0 mm 0.00 in0.0 mm 0.00 in0.0 mm
01:00 AM 35.1°F1.7°C 31.3°F-0.4°C 86% 2.1 mph SSW3.4 kmh SSW 3.8 mph6.1 kmh 29.74 in1007.1 mb 0.00 in0.0 mm 0.00 in0.0 mm 0.00 in0.0 mm
12:50 AM 35.2°F1.8°C 31.5°F-0.3°C 86% 3.0 mph S4.8 kmh S 3.8 mph6.1 kmh 29.75 in1007.5 mb 0.00 in0.0 mm 0.00 in0.0 mm 0.00 in0.0 mm
12:40 AM 35.2°F1.8°C 31.5°F-0.3°C 86% 2.3 mph SSE3.7 kmh SSE 4.5 mph7.2 kmh 29.75 in1007.5 mb 0.00 in0.0 mm 0.00 in0.0 mm 0.00 in0.0 mm
12:30 AM 35.6°F2.0°C 31.8°F-0.1°C 86% 2.0 mph ESE3.2 kmh ESE 3.8 mph6.1 kmh 29.76 in1007.8 mb 0.00 in0.0 mm 0.00 in0.0 mm 0.00 in0.0 mm
12:20 AM 35.6°F2.0°C 31.8°F-0.1°C 86% 2.6 mph SSE4.2 kmh SSE 5.4 mph8.7 kmh 29.76 in1007.8 mb 0.00 in0.0 mm 0.00 in0.0 mm 0.00 in0.0 mm
12:10 AM 35.1°F1.7°C 31.3°F-0.4°C 86% 1.7 mph S2.7 kmh S 3.1 mph5.0 kmh 29.77 in1008.1 mb 0.00 in0.0 mm 0.00 in0.0 mm 0.00 in0.0 mm
12:00 AM 35.1°F1.7°C 31.3°F-0.4°C 86% 2.5 mph S4.0 kmh S 4.5 mph7.2 kmh 29.77 in1008.1 mb 0.00 in0.0 mm 0.00 in0.0 mm 0.00 in0.0 mm